sensor_id;sensor_type;location;lat;lon;timestamp;temperature;humidity
11989;DHT22;6054;50.966;7.094;2023-08-08T00:01:03;23.30;57.90
11989;DHT22;6054;50.966;7.094;2023-08-08T00:03:30;23.20;58.00
11989;DHT22;6054;50.966;7.094;2023-08-08T00:05:57;23.20;57.80
11989;DHT22;6054;50.966;7.094;2023-08-08T00:08:23;23.20;58.20
11989;DHT22;6054;50.966;7.094;2023-08-08T00:10:51;23.50;58.40
11989;DHT22;6054;50.966;7.094;2023-08-08T00:13:18;23.20;58.20
11989;DHT22;6054;50.966;7.094;2023-08-08T00:15:45;23.10;58.30
11989;DHT22;6054;50.966;7.094;2023-08-08T00:18:12;23.10;58.20
11989;DHT22;6054;50.966;7.094;2023-08-08T00:20:38;23.10;58.90
11989;DHT22;6054;50.966;7.094;2023-08-08T00:23:05;23.10;58.00
11989;DHT22;6054;50.966;7.094;2023-08-08T00:25:32;23.10;58.20
11989;DHT22;6054;50.966;7.094;2023-08-08T00:28:00;23.10;58.20
11989;DHT22;6054;50.966;7.094;2023-08-08T00:30:27;23.40;58.50
11989;DHT22;6054;50.966;7.094;2023-08-08T00:32:53;23.00;58.30
11989;DHT22;6054;50.966;7.094;2023-08-08T00:35:20;23.00;58.00
11989;DHT22;6054;50.966;7.094;2023-08-08T00:37:47;23.00;57.70
11989;DHT22;6054;50.966;7.094;2023-08-08T00:40:14;23.00;58.50
11989;DHT22;6054;50.966;7.094;2023-08-08T00:42:41;23.00;57.60
11989;DHT22;6054;50.966;7.094;2023-08-08T00:45:10;23.30;58.20
11989;DHT22;6054;50.966;7.094;2023-08-08T00:47:37;22.90;58.10
11989;DHT22;6054;50.966;7.094;2023-08-08T00:50:04;22.90;57.90
11989;DHT22;6054;50.966;7.094;2023-08-08T00:52:32;22.90;58.50
11989;DHT22;6054;50.966;7.094;2023-08-08T00:54:59;22.90;58.20
11989;DHT22;6054;50.966;7.094;2023-08-08T00:57:27;22.80;58.00
11989;DHT22;6054;50.966;7.094;2023-08-08T00:59:53;22.80;58.40
11989;DHT22;6054;50.966;7.094;2023-08-08T01:02:22;23.00;58.00
11989;DHT22;6054;50.966;7.094;2023-08-08T01:04:48;22.70;57.70
11989;DHT22;6054;50.966;7.094;2023-08-08T01:07:20;22.80;58.00
11989;DHT22;6054;50.966;7.094;2023-08-08T01:09:54;22.70;58.20
11989;DHT22;6054;50.966;7.094;2023-08-08T01:12:23;22.60;58.10
11989;DHT22;6054;50.966;7.094;2023-08-08T01:14:52;22.70;58.30
11989;DHT22;6054;50.966;7.094;2023-08-08T01:17:22;22.70;58.40
11989;DHT22;6054;50.966;7.094;2023-08-08T01:19:49;22.70;58.30
11989;DHT22;6054;50.966;7.094;2023-08-08T01:22:23;22.60;58.40
11989;DHT22;6054;50.966;7.094;2023-08-08T01:24:54;22.60;58.40
11989;DHT22;6054;50.966;7.094;2023-08-08T01:27:22;22.50;58.70
11989;DHT22;6054;50.966;7.094;2023-08-08T01:29:49;22.60;58.30
11989;DHT22;6054;50.966;7.094;2023-08-08T01:32:16;22.60;57.90
11989;DHT22;6054;50.966;7.094;2023-08-08T01:34:42;22.60;58.00
11989;DHT22;6054;50.966;7.094;2023-08-08T01:37:13;22.50;58.00
11989;DHT22;6054;50.966;7.094;2023-08-08T01:39:42;22.50;58.40
11989;DHT22;6054;50.966;7.094;2023-08-08T01:42:11;22.50;58.50
11989;DHT22;6054;50.966;7.094;2023-08-08T01:44:41;22.50;58.40
11989;DHT22;6054;50.966;7.094;2023-08-08T01:47:08;22.50;58.40
11989;DHT22;6054;50.966;7.094;2023-08-08T01:49:34;22.50;58.10
11989;DHT22;6054;50.966;7.094;2023-08-08T01:52:01;22.70;58.10
11989;DHT22;6054;50.966;7.094;2023-08-08T01:54:28;22.50;58.20
11989;DHT22;6054;50.966;7.094;2023-08-08T01:56:55;22.50;59.00
11989;DHT22;6054;50.966;7.094;2023-08-08T01:59:23;22.40;58.30
11989;DHT22;6054;50.966;7.094;2023-08-08T02:01:50;22.40;58.30
11989;DHT22;6054;50.966;7.094;2023-08-08T02:04:16;22.40;58.20
11989;DHT22;6054;50.966;7.094;2023-08-08T02:06:43;22.40;58.10
11989;DHT22;6054;50.966;7.094;2023-08-08T02:09:10;22.40;58.20
11989;DHT22;6054;50.966;7.094;2023-08-08T02:11:39;22.40;58.20
11989;DHT22;6054;50.966;7.094;2023-08-08T02:14:05;22.30;58.20
11989;DHT22;6054;50.966;7.094;2023-08-08T02:16:33;22.40;58.30
11989;DHT22;6054;50.966;7.094;2023-08-08T02:19:00;22.30;58.10
11989;DHT22;6054;50.966;7.094;2023-08-08T02:21:27;22.40;58.30
11989;DHT22;6054;50.966;7.094;2023-08-08T02:23:54;22.40;58.20
11989;DHT22;6054;50.966;7.094;2023-08-08T02:26:21;22.30;58.20
11989;DHT22;6054;50.966;7.094;2023-08-08T02:28:47;22.50;58.60
11989;DHT22;6054;50.966;7.094;2023-08-08T02:31:14;22.30;58.20
11989;DHT22;6054;50.966;7.094;2023-08-08T02:33:47;22.40;58.30
11989;DHT22;6054;50.966;7.094;2023-08-08T02:36:14;22.30;58.70
11989;DHT22;6054;50.966;7.094;2023-08-08T02:38:41;22.30;58.20
11989;DHT22;6054;50.966;7.094;2023-08-08T02:41:08;22.20;58.00
11989;DHT22;6054;50.966;7.094;2023-08-08T02:43:35;22.20;58.20
11989;DHT22;6054;50.966;7.094;2023-08-08T02:46:01;22.20;58.10
11989;DHT22;6054;50.966;7.094;2023-08-08T02:48:29;22.20;57.90
11989;DHT22;6054;50.966;7.094;2023-08-08T02:50:57;22.20;58.40
11989;DHT22;6054;50.966;7.094;2023-08-08T02:53:24;22.30;58.10
11989;DHT22;6054;50.966;7.094;2023-08-08T02:55:51;22.10;57.80
11989;DHT22;6054;50.966;7.094;2023-08-08T02:58:17;22.10;57.60
11989;DHT22;6054;50.966;7.094;2023-08-08T03:00:44;22.10;57.90
11989;DHT22;6054;50.966;7.094;2023-08-08T03:03:11;22.00;57.70
11989;DHT22;6054;50.966;7.094;2023-08-08T03:05:38;22.10;57.90
11989;DHT22;6054;50.966;7.094;2023-08-08T03:08:06;22.00;57.80
11989;DHT22;6054;50.966;7.094;2023-08-08T03:10:33;22.00;57.60
11989;DHT22;6054;50.966;7.094;2023-08-08T03:12:59;22.20;57.90
11989;DHT22;6054;50.966;7.094;2023-08-08T03:15:26;22.00;57.70
11989;DHT22;6054;50.966;7.094;2023-08-08T03:17:53;21.90;57.40
11989;DHT22;6054;50.966;7.094;2023-08-08T03:20:21;21.90;57.30
11989;DHT22;6054;50.966;7.094;2023-08-08T03:22:47;21.90;57.40
11989;DHT22;6054;50.966;7.094;2023-08-08T03:25:16;21.90;57.70
11989;DHT22;6054;50.966;7.094;2023-08-08T03:27:43;21.80;56.80
11989;DHT22;6054;50.966;7.094;2023-08-08T03:30:10;21.80;57.60
11989;DHT22;6054;50.966;7.094;2023-08-08T03:32:37;21.80;58.00
11989;DHT22;6054;50.966;7.094;2023-08-08T03:35:04;21.90;58.10
11989;DHT22;6054;50.966;7.094;2023-08-08T03:37:31;21.70;58.10
11989;DHT22;6054;50.966;7.094;2023-08-08T03:39:58;21.70;57.80
11989;DHT22;6054;50.966;7.094;2023-08-08T03:42:26;21.70;57.60
11989;DHT22;6054;50.966;7.094;2023-08-08T03:44:53;21.70;57.60
11989;DHT22;6054;50.966;7.094;2023-08-08T03:47:20;21.60;57.40
11989;DHT22;6054;50.966;7.094;2023-08-08T03:49:47;21.60;57.70
11989;DHT22;6054;50.966;7.094;2023-08-08T03:52:14;21.60;57.60
11989;DHT22;6054;50.966;7.094;2023-08-08T03:54:41;21.90;57.80
11989;DHT22;6054;50.966;7.094;2023-08-08T03:57:08;21.60;57.30
11989;DHT22;6054;50.966;7.094;2023-08-08T03:59:36;21.60;57.30
11989;DHT22;6054;50.966;7.094;2023-08-08T04:02:03;21.60;57.10
11989;DHT22;6054;50.966;7.094;2023-08-08T04:04:30;21.60;57.60
11989;DHT22;6054;50.966;7.094;2023-08-08T04:06:57;21.50;57.50
11989;DHT22;6054;50.966;7.094;2023-08-08T04:09:24;21.50;57.30
11989;DHT22;6054;50.966;7.094;2023-08-08T04:11:51;21.60;54.90
11989;DHT22;6054;50.966;7.094;2023-08-08T04:14:17;21.80;57.50
11989;DHT22;6054;50.966;7.094;2023-08-08T04:16:46;21.50;55.80
11989;DHT22;6054;50.966;7.094;2023-08-08T04:19:12;21.50;56.10
11989;DHT22;6054;50.966;7.094;2023-08-08T04:21:45;21.50;55.70
11989;DHT22;6054;50.966;7.094;2023-08-08T04:24:12;21.50;55.00
11989;DHT22;6054;50.966;7.094;2023-08-08T04:26:38;21.80;57.60
11989;DHT22;6054;50.966;7.094;2023-08-08T04:29:05;21.50;58.10
11989;DHT22;6054;50.966;7.094;2023-08-08T04:31:32;21.50;58.10
11989;DHT22;6054;50.966;7.094;2023-08-08T04:34:01;21.50;58.40
11989;DHT22;6054;50.966;7.094;2023-08-08T04:36:28;21.50;58.50
11989;DHT22;6054;50.966;7.094;2023-08-08T04:38:55;21.50;58.20
11989;DHT22;6054;50.966;7.094;2023-08-08T04:41:36;21.40;56.70
11989;DHT22;6054;50.966;7.094;2023-08-08T04:44:03;21.50;58.00
11989;DHT22;6054;50.966;7.094;2023-08-08T04:46:30;21.60;55.90
11989;DHT22;6054;50.966;7.094;2023-08-08T04:49:01;21.80;56.50
11989;DHT22;6054;50.966;7.094;2023-08-08T04:51:29;21.60;57.30
11989;DHT22;6054;50.966;7.094;2023-08-08T04:53:56;21.50;58.20
11989;DHT22;6054;50.966;7.094;2023-08-08T04:56:23;21.50;58.60
11989;DHT22;6054;50.966;7.094;2023-08-08T04:58:49;21.50;58.70
11989;DHT22;6054;50.966;7.094;2023-08-08T05:01:16;21.50;58.40
11989;DHT22;6054;50.966;7.094;2023-08-08T05:03:45;21.50;58.70
11989;DHT22;6054;50.966;7.094;2023-08-08T05:06:12;21.80;58.90
11989;DHT22;6054;50.966;7.094;2023-08-08T05:08:43;21.80;57.80
11989;DHT22;6054;50.966;7.094;2023-08-08T05:11:10;21.50;58.60
11989;DHT22;6054;50.966;7.094;2023-08-08T05:13:38;21.50;58.40
11989;DHT22;6054;50.966;7.094;2023-08-08T05:16:08;21.50;58.20
11989;DHT22;6054;50.966;7.094;2023-08-08T05:18:35;21.50;58.90
11989;DHT22;6054;50.966;7.094;2023-08-08T05:21:01;21.50;58.50
11989;DHT22;6054;50.966;7.094;2023-08-08T05:23:28;21.50;57.80
11989;DHT22;6054;50.966;7.094;2023-08-08T05:25:56;21.60;58.50
11989;DHT22;6054;50.966;7.094;2023-08-08T05:28:23;21.60;59.00
11989;DHT22;6054;50.966;7.094;2023-08-08T05:30:50;21.60;58.60
11989;DHT22;6054;50.966;7.094;2023-08-08T05:33:34;21.60;58.80
11989;DHT22;6054;50.966;7.094;2023-08-08T05:36:00;21.60;58.60
11989;DHT22;6054;50.966;7.094;2023-08-08T05:38:27;21.60;58.90
11989;DHT22;6054;50.966;7.094;2023-08-08T05:40:55;22.00;59.10
11989;DHT22;6054;50.966;7.094;2023-08-08T05:43:22;21.60;59.00
11989;DHT22;6054;50.966;7.094;2023-08-08T05:45:48;21.60;58.60
11989;DHT22;6054;50.966;7.094;2023-08-08T05:48:16;21.60;58.90
11989;DHT22;6054;50.966;7.094;2023-08-08T05:50:43;21.70;59.50
11989;DHT22;6054;50.966;7.094;2023-08-08T05:53:10;21.70;59.40
11989;DHT22;6054;50.966;7.094;2023-08-08T05:55:37;21.70;59.50
11989;DHT22;6054;50.966;7.094;2023-08-08T05:58:05;21.70;59.40
11989;DHT22;6054;50.966;7.094;2023-08-08T06:00:32;21.70;59.50
11989;DHT22;6054;50.966;7.094;2023-08-08T06:02:59;21.80;59.50
11989;DHT22;6054;50.966;7.094;2023-08-08T06:05:26;21.80;59.50
11989;DHT22;6054;50.966;7.094;2023-08-08T06:07:53;21.80;59.30
11989;DHT22;6054;50.966;7.094;2023-08-08T06:10:20;21.80;59.60
11989;DHT22;6054;50.966;7.094;2023-08-08T06:12:47;21.90;59.70
11989;DHT22;6054;50.966;7.094;2023-08-08T06:15:15;21.90;59.70
11989;DHT22;6054;50.966;7.094;2023-08-08T06:17:42;21.90;59.70
11989;DHT22;6054;50.966;7.094;2023-08-08T06:20:09;21.90;59.90
11989;DHT22;6054;50.966;7.094;2023-08-08T06:22:36;22.00;60.00
11989;DHT22;6054;50.966;7.094;2023-08-08T06:25:04;21.90;60.00
11989;DHT22;6054;50.966;7.094;2023-08-08T06:27:31;22.00;60.10
11989;DHT22;6054;50.966;7.094;2023-08-08T06:29:58;22.00;59.60
11989;DHT22;6054;50.966;7.094;2023-08-08T06:32:26;22.10;59.90
11989;DHT22;6054;50.966;7.094;2023-08-08T06:34:53;22.10;59.70
11989;DHT22;6054;50.966;7.094;2023-08-08T06:37:20;22.30;60.00
11989;DHT22;6054;50.966;7.094;2023-08-08T06:39:47;22.10;59.50
11989;DHT22;6054;50.966;7.094;2023-08-08T06:42:14;22.20;59.80
11989;DHT22;6054;50.966;7.094;2023-08-08T06:44:41;22.20;59.80
11989;DHT22;6054;50.966;7.094;2023-08-08T06:47:09;22.20;59.80
11989;DHT22;6054;50.966;7.094;2023-08-08T06:49:37;22.20;59.40
11989;DHT22;6054;50.966;7.094;2023-08-08T06:52:05;22.70;60.30
11989;DHT22;6054;50.966;7.094;2023-08-08T06:54:32;22.40;59.70
11989;DHT22;6054;50.966;7.094;2023-08-08T06:56:59;22.60;59.70
11989;DHT22;6054;50.966;7.094;2023-08-08T06:59:27;22.40;59.00
11989;DHT22;6054;50.966;7.094;2023-08-08T07:01:54;22.70;59.40
11989;DHT22;6054;50.966;7.094;2023-08-08T07:04:22;22.50;58.90
11989;DHT22;6054;50.966;7.094;2023-08-08T07:06:50;22.50;58.10
11989;DHT22;6054;50.966;7.094;2023-08-08T07:09:17;22.50;58.00
11989;DHT22;6054;50.966;7.094;2023-08-08T07:11:44;22.50;58.60
11989;DHT22;6054;50.966;7.094;2023-08-08T07:14:11;22.50;58.80
11989;DHT22;6054;50.966;7.094;2023-08-08T07:16:38;22.60;58.70
11989;DHT22;6054;50.966;7.094;2023-08-08T07:19:05;22.60;58.80
11989;DHT22;6054;50.966;7.094;2023-08-08T07:21:32;22.60;58.80
11989;DHT22;6054;50.966;7.094;2023-08-08T07:24:00;22.70;57.90
11989;DHT22;6054;50.966;7.094;2023-08-08T07:26:28;22.60;58.60
11989;DHT22;6054;50.966;7.094;2023-08-08T07:28:55;22.60;58.50
11989;DHT22;6054;50.966;7.094;2023-08-08T07:31:22;22.70;58.80
11989;DHT22;6054;50.966;7.094;2023-08-08T07:33:48;22.90;59.30
11989;DHT22;6054;50.966;7.094;2023-08-08T07:36:15;22.80;58.70
11989;DHT22;6054;50.966;7.094;2023-08-08T07:38:42;23.10;57.90
11989;DHT22;6054;50.966;7.094;2023-08-08T07:41:10;22.80;57.90
11989;DHT22;6054;50.966;7.094;2023-08-08T07:43:36;22.80;58.10
11989;DHT22;6054;50.966;7.094;2023-08-08T07:46:03;22.80;57.40
11989;DHT22;6054;50.966;7.094;2023-08-08T07:48:30;22.90;57.10
11989;DHT22;6054;50.966;7.094;2023-08-08T07:50:57;22.90;57.50
11989;DHT22;6054;50.966;7.094;2023-08-08T07:53:23;22.80;57.00
11989;DHT22;6054;50.966;7.094;2023-08-08T07:55:50;22.90;58.10
11989;DHT22;6054;50.966;7.094;2023-08-08T07:58:18;22.90;58.40
11989;DHT22;6054;50.966;7.094;2023-08-08T08:00:47;23.00;55.80
11989;DHT22;6054;50.966;7.094;2023-08-08T08:03:14;22.90;56.80
11989;DHT22;6054;50.966;7.094;2023-08-08T08:05:46;22.90;56.70
11989;DHT22;6054;50.966;7.094;2023-08-08T08:08:13;23.20;56.90
11989;DHT22;6054;50.966;7.094;2023-08-08T08:10:40;23.20;57.10
11989;DHT22;6054;50.966;7.094;2023-08-08T08:13:07;23.30;56.80
11989;DHT22;6054;50.966;7.094;2023-08-08T08:15:35;23.00;56.70
11989;DHT22;6054;50.966;7.094;2023-08-08T08:18:02;23.00;56.90
11989;DHT22;6054;50.966;7.094;2023-08-08T08:20:28;23.10;57.10
11989;DHT22;6054;50.966;7.094;2023-08-08T08:22:55;23.10;57.60
11989;DHT22;6054;50.966;7.094;2023-08-08T08:25:22;23.50;58.00
11989;DHT22;6054;50.966;7.094;2023-08-08T08:27:49;23.10;56.90
11989;DHT22;6054;50.966;7.094;2023-08-08T08:30:15;23.10;56.80
11989;DHT22;6054;50.966;7.094;2023-08-08T08:32:43;23.20;57.60
11989;DHT22;6054;50.966;7.094;2023-08-08T08:35:10;23.20;57.80
11989;DHT22;6054;50.966;7.094;2023-08-08T08:37:38;23.30;57.40
11989;DHT22;6054;50.966;7.094;2023-08-08T08:40:06;23.30;57.30
11989;DHT22;6054;50.966;7.094;2023-08-08T08:42:34;23.40;57.30
11989;DHT22;6054;50.966;7.094;2023-08-08T08:45:02;23.40;57.60
11989;DHT22;6054;50.966;7.094;2023-08-08T08:47:31;23.40;57.10
11989;DHT22;6054;50.966;7.094;2023-08-08T08:50:00;23.40;56.90
11989;DHT22;6054;50.966;7.094;2023-08-08T08:52:29;23.40;57.00
11989;DHT22;6054;50.966;7.094;2023-08-08T08:54:55;23.40;56.90
11989;DHT22;6054;50.966;7.094;2023-08-08T08:57:23;23.30;57.60
11989;DHT22;6054;50.966;7.094;2023-08-08T08:59:50;23.40;57.10
11989;DHT22;6054;50.966;7.094;2023-08-08T09:02:17;23.40;56.70
11989;DHT22;6054;50.966;7.094;2023-08-08T09:04:45;23.70;57.50
11989;DHT22;6054;50.966;7.094;2023-08-08T09:07:14;23.40;56.90
11989;DHT22;6054;50.966;7.094;2023-08-08T09:09:43;23.40;57.60
11989;DHT22;6054;50.966;7.094;2023-08-08T09:12:10;23.50;57.50
11989;DHT22;6054;50.966;7.094;2023-08-08T09:14:40;23.40;55.80
11989;DHT22;6054;50.966;7.094;2023-08-08T09:17:10;23.50;56.60
11989;DHT22;6054;50.966;7.094;2023-08-08T09:19:38;23.40;56.50
11989;DHT22;6054;50.966;7.094;2023-08-08T09:22:04;23.50;55.80
11989;DHT22;6054;50.966;7.094;2023-08-08T09:24:37;23.50;56.10
11989;DHT22;6054;50.966;7.094;2023-08-08T09:27:04;23.50;55.30
11989;DHT22;6054;50.966;7.094;2023-08-08T09:29:33;23.50;54.90
11989;DHT22;6054;50.966;7.094;2023-08-08T09:32:02;23.50;54.10
11989;DHT22;6054;50.966;7.094;2023-08-08T09:34:30;23.50;54.40
11989;DHT22;6054;50.966;7.094;2023-08-08T09:36:57;23.70;54.30
11989;DHT22;6054;50.966;7.094;2023-08-08T09:39:24;23.50;54.20
11989;DHT22;6054;50.966;7.094;2023-08-08T09:41:55;23.80;53.80
11989;DHT22;6054;50.966;7.094;2023-08-08T09:44:23;23.50;54.00
11989;DHT22;6054;50.966;7.094;2023-08-08T09:46:50;23.50;53.60
11989;DHT22;6054;50.966;7.094;2023-08-08T09:49:17;23.50;54.10
11989;DHT22;6054;50.966;7.094;2023-08-08T09:51:46;23.60;54.30
11989;DHT22;6054;50.966;7.094;2023-08-08T09:54:13;23.60;53.90
11989;DHT22;6054;50.966;7.094;2023-08-08T09:56:40;24.00;53.70
11989;DHT22;6054;50.966;7.094;2023-08-08T09:59:09;23.60;53.30
11989;DHT22;6054;50.966;7.094;2023-08-08T10:01:36;23.70;53.60
11989;DHT22;6054;50.966;7.094;2023-08-08T10:04:06;23.80;53.70
11989;DHT22;6054;50.966;7.094;2023-08-08T10:06:33;23.70;53.50
11989;DHT22;6054;50.966;7.094;2023-08-08T10:09:01;23.80;53.40
11989;DHT22;6054;50.966;7.094;2023-08-08T10:11:30;23.80;53.70
11989;DHT22;6054;50.966;7.094;2023-08-08T10:13:57;23.80;53.00
11989;DHT22;6054;50.966;7.094;2023-08-08T10:16:27;23.80;51.60
11989;DHT22;6054;50.966;7.094;2023-08-08T10:18:59;23.80;51.60
11989;DHT22;6054;50.966;7.094;2023-08-08T10:21:26;23.80;52.60
11989;DHT22;6054;50.966;7.094;2023-08-08T10:24:04;23.90;52.30
11989;DHT22;6054;50.966;7.094;2023-08-08T10:26:31;23.90;52.30
11989;DHT22;6054;50.966;7.094;2023-08-08T10:29:00;24.00;52.00
11989;DHT22;6054;50.966;7.094;2023-08-08T10:31:33;24.00;52.50
11989;DHT22;6054;50.966;7.094;2023-08-08T10:34:04;24.00;52.70
11989;DHT22;6054;50.966;7.094;2023-08-08T10:36:48;24.20;53.10
11989;DHT22;6054;50.966;7.094;2023-08-08T10:39:16;24.10;52.80
11989;DHT22;6054;50.966;7.094;2023-08-08T10:41:47;24.20;52.50
11989;DHT22;6054;50.966;7.094;2023-08-08T10:44:21;24.20;52.80
11989;DHT22;6054;50.966;7.094;2023-08-08T10:46:51;24.30;51.80
11989;DHT22;6054;50.966;7.094;2023-08-08T10:49:19;24.40;50.50
11989;DHT22;6054;50.966;7.094;2023-08-08T10:51:47;24.40;50.50
11989;DHT22;6054;50.966;7.094;2023-08-08T10:54:16;24.50;50.30
11989;DHT22;6054;50.966;7.094;2023-08-08T10:56:48;24.50;50.20
11989;DHT22;6054;50.966;7.094;2023-08-08T10:59:17;24.50;49.80
11989;DHT22;6054;50.966;7.094;2023-08-08T11:01:48;24.50;50.60
11989;DHT22;6054;50.966;7.094;2023-08-08T11:04:18;24.50;49.80
11989;DHT22;6054;50.966;7.094;2023-08-08T11:06:46;24.70;51.10
11989;DHT22;6054;50.966;7.094;2023-08-08T11:09:15;24.60;49.70
11989;DHT22;6054;50.966;7.094;2023-08-08T11:11:43;24.60;50.20
11989;DHT22;6054;50.966;7.094;2023-08-08T11:14:12;24.60;50.40
11989;DHT22;6054;50.966;7.094;2023-08-08T11:16:39;24.60;50.90
11989;DHT22;6054;50.966;7.094;2023-08-08T11:19:07;24.60;49.50
11989;DHT22;6054;50.966;7.094;2023-08-08T11:21:35;24.60;48.10
11989;DHT22;6054;50.966;7.094;2023-08-08T11:24:04;24.60;49.10
11989;DHT22;6054;50.966;7.094;2023-08-08T11:26:32;24.60;49.10
11989;DHT22;6054;50.966;7.094;2023-08-08T11:28:59;24.60;49.50
11989;DHT22;6054;50.966;7.094;2023-08-08T11:31:26;24.60;49.30
11989;DHT22;6054;50.966;7.094;2023-08-08T11:33:53;24.60;49.40
11989;DHT22;6054;50.966;7.094;2023-08-08T11:36:21;24.60;48.70
11989;DHT22;6054;50.966;7.094;2023-08-08T11:38:50;24.70;48.60
11989;DHT22;6054;50.966;7.094;2023-08-08T11:41:21;24.70;49.20
11989;DHT22;6054;50.966;7.094;2023-08-08T11:43:49;24.70;49.50
11989;DHT22;6054;50.966;7.094;2023-08-08T11:46:17;24.70;49.40
11989;DHT22;6054;50.966;7.094;2023-08-08T11:48:47;24.90;49.10
11989;DHT22;6054;50.966;7.094;2023-08-08T11:51:15;24.70;49.50
11989;DHT22;6054;50.966;7.094;2023-08-08T11:53:50;24.90;50.00
11989;DHT22;6054;50.966;7.094;2023-08-08T11:56:18;24.80;49.80
11989;DHT22;6054;50.966;7.094;2023-08-08T11:58:45;25.10;49.60
11989;DHT22;6054;50.966;7.094;2023-08-08T12:01:12;25.00;48.00
11989;DHT22;6054;50.966;7.094;2023-08-08T12:03:40;24.90;48.00
11989;DHT22;6054;50.966;7.094;2023-08-08T12:06:12;24.80;47.30
11989;DHT22;6054;50.966;7.094;2023-08-08T12:08:41;25.10;48.00
11989;DHT22;6054;50.966;7.094;2023-08-08T12:11:10;25.10;48.30
11989;DHT22;6054;50.966;7.094;2023-08-08T12:13:38;25.10;47.60
11989;DHT22;6054;50.966;7.094;2023-08-08T12:16:06;24.90;47.60
11989;DHT22;6054;50.966;7.094;2023-08-08T12:18:33;25.00;48.50
11989;DHT22;6054;50.966;7.094;2023-08-08T12:21:00;24.90;47.50
11989;DHT22;6054;50.966;7.094;2023-08-08T12:23:27;24.90;47.10
11989;DHT22;6054;50.966;7.094;2023-08-08T12:25:54;24.90;46.70
11989;DHT22;6054;50.966;7.094;2023-08-08T12:28:25;25.20;47.00
11989;DHT22;6054;50.966;7.094;2023-08-08T12:30:52;25.10;47.20
11989;DHT22;6054;50.966;7.094;2023-08-08T12:33:19;25.00;45.70
11989;DHT22;6054;50.966;7.094;2023-08-08T12:35:46;25.20;46.10
11989;DHT22;6054;50.966;7.094;2023-08-08T12:38:13;25.00;46.90
11989;DHT22;6054;50.966;7.094;2023-08-08T12:40:40;25.20;45.50
11989;DHT22;6054;50.966;7.094;2023-08-08T12:43:07;25.10;45.90
11989;DHT22;6054;50.966;7.094;2023-08-08T12:45:35;25.00;45.80
11989;DHT22;6054;50.966;7.094;2023-08-08T12:48:01;25.30;45.60
11989;DHT22;6054;50.966;7.094;2023-08-08T12:50:28;25.10;45.20
11989;DHT22;6054;50.966;7.094;2023-08-08T12:52:55;25.00;44.10
11989;DHT22;6054;50.966;7.094;2023-08-08T12:55:22;25.00;45.10
11989;DHT22;6054;50.966;7.094;2023-08-08T12:57:49;25.00;44.70
11989;DHT22;6054;50.966;7.094;2023-08-08T13:00:16;25.00;45.20
11989;DHT22;6054;50.966;7.094;2023-08-08T13:02:44;25.10;45.50
11989;DHT22;6054;50.966;7.094;2023-08-08T13:05:11;25.00;46.50
11989;DHT22;6054;50.966;7.094;2023-08-08T13:07:38;24.90;47.50
11989;DHT22;6054;50.966;7.094;2023-08-08T13:10:06;24.90;48.70
11989;DHT22;6054;50.966;7.094;2023-08-08T13:12:33;24.90;49.60
11989;DHT22;6054;50.966;7.094;2023-08-08T13:15:00;24.80;49.70
11989;DHT22;6054;50.966;7.094;2023-08-08T13:17:26;24.80;50.10
11989;DHT22;6054;50.966;7.094;2023-08-08T13:19:54;24.70;50.40
11989;DHT22;6054;50.966;7.094;2023-08-08T13:22:21;24.80;50.80
11989;DHT22;6054;50.966;7.094;2023-08-08T13:24:48;24.70;50.60
11989;DHT22;6054;50.966;7.094;2023-08-08T13:27:15;24.70;50.90
11989;DHT22;6054;50.966;7.094;2023-08-08T13:29:41;24.70;51.00
11989;DHT22;6054;50.966;7.094;2023-08-08T13:32:08;24.70;51.00
11989;DHT22;6054;50.966;7.094;2023-08-08T13:34:35;24.70;51.10
11989;DHT22;6054;50.966;7.094;2023-08-08T13:37:03;24.70;51.20
11989;DHT22;6054;50.966;7.094;2023-08-08T13:39:30;24.80;51.60
11989;DHT22;6054;50.966;7.094;2023-08-08T13:41:57;24.80;52.20
11989;DHT22;6054;50.966;7.094;2023-08-08T13:44:23;25.00;52.00
11989;DHT22;6054;50.966;7.094;2023-08-08T13:46:50;24.90;51.90
11989;DHT22;6054;50.966;7.094;2023-08-08T13:49:18;24.90;51.80
11989;DHT22;6054;50.966;7.094;2023-08-08T13:51:44;25.30;51.70
11989;DHT22;6054;50.966;7.094;2023-08-08T13:54:12;25.00;51.70
11989;DHT22;6054;50.966;7.094;2023-08-08T13:56:39;25.00;51.00
11989;DHT22;6054;50.966;7.094;2023-08-08T13:59:06;25.10;50.90
11989;DHT22;6054;50.966;7.094;2023-08-08T14:01:33;25.20;50.00
11989;DHT22;6054;50.966;7.094;2023-08-08T14:03:59;25.20;49.80
11989;DHT22;6054;50.966;7.094;2023-08-08T14:06:26;25.30;47.70
11989;DHT22;6054;50.966;7.094;2023-08-08T14:08:54;25.30;46.90
11989;DHT22;6054;50.966;7.094;2023-08-08T14:11:22;25.30;46.80
11989;DHT22;6054;50.966;7.094;2023-08-08T14:13:49;25.30;46.40
11989;DHT22;6054;50.966;7.094;2023-08-08T14:16:16;25.30;45.90
11989;DHT22;6054;50.966;7.094;2023-08-08T14:18:46;25.20;45.60
11989;DHT22;6054;50.966;7.094;2023-08-08T14:21:14;25.20;46.60
11989;DHT22;6054;50.966;7.094;2023-08-08T14:23:41;25.20;46.40
11989;DHT22;6054;50.966;7.094;2023-08-08T14:26:08;25.40;46.50
11989;DHT22;6054;50.966;7.094;2023-08-08T14:28:36;25.30;46.10
11989;DHT22;6054;50.966;7.094;2023-08-08T14:31:02;25.30;45.80
11989;DHT22;6054;50.966;7.094;2023-08-08T14:33:31;25.30;46.20
11989;DHT22;6054;50.966;7.094;2023-08-08T14:35:58;25.30;46.10
11989;DHT22;6054;50.966;7.094;2023-08-08T14:38:25;25.30;46.00
11989;DHT22;6054;50.966;7.094;2023-08-08T14:40:53;25.40;44.60
11989;DHT22;6054;50.966;7.094;2023-08-08T14:43:20;25.50;46.80
11989;DHT22;6054;50.966;7.094;2023-08-08T14:45:50;25.70;47.00
11989;DHT22;6054;50.966;7.094;2023-08-08T14:48:16;25.60;46.60
11989;DHT22;6054;50.966;7.094;2023-08-08T14:50:43;25.60;46.70
11989;DHT22;6054;50.966;7.094;2023-08-08T14:53:10;25.70;46.40
11989;DHT22;6054;50.966;7.094;2023-08-08T14:55:38;26.00;46.50
11989;DHT22;6054;50.966;7.094;2023-08-08T14:58:05;25.80;45.70
11989;DHT22;6054;50.966;7.094;2023-08-08T15:00:32;25.80;45.10
11989;DHT22;6054;50.966;7.094;2023-08-08T15:03:00;25.90;45.60
11989;DHT22;6054;50.966;7.094;2023-08-08T15:05:27;26.00;45.30
11989;DHT22;6054;50.966;7.094;2023-08-08T15:07:55;26.00;46.00
11989;DHT22;6054;50.966;7.094;2023-08-08T15:10:22;26.00;45.80
11989;DHT22;6054;50.966;7.094;2023-08-08T15:12:49;26.30;45.50
11989;DHT22;6054;50.966;7.094;2023-08-08T15:15:16;26.10;44.20
11989;DHT22;6054;50.966;7.094;2023-08-08T15:17:45;26.10;44.40
11989;DHT22;6054;50.966;7.094;2023-08-08T15:20:13;26.10;43.90
11989;DHT22;6054;50.966;7.094;2023-08-08T15:22:40;26.00;43.80
11989;DHT22;6054;50.966;7.094;2023-08-08T15:25:08;26.10;43.80
11989;DHT22;6054;50.966;7.094;2023-08-08T15:27:37;26.20;44.60
11989;DHT22;6054;50.966;7.094;2023-08-08T15:30:04;26.20;44.10
11989;DHT22;6054;50.966;7.094;2023-08-08T15:32:32;26.20;45.20
11989;DHT22;6054;50.966;7.094;2023-08-08T15:34:59;26.20;44.40
11989;DHT22;6054;50.966;7.094;2023-08-08T15:37:27;26.40;45.00
11989;DHT22;6054;50.966;7.094;2023-08-08T15:39:54;26.30;45.00
11989;DHT22;6054;50.966;7.094;2023-08-08T15:42:22;26.20;45.30
11989;DHT22;6054;50.966;7.094;2023-08-08T15:44:50;26.20;45.40
11989;DHT22;6054;50.966;7.094;2023-08-08T15:47:17;26.20;45.80